createdAt,value
2019-03-23T00:00:41.246Z,0.00
2019-03-23T00:01:41.261Z,0.00
2019-03-23T00:02:41.231Z,0.00
2019-03-23T00:03:41.228Z,0.00
2019-03-23T00:04:41.236Z,0.00
2019-03-23T00:05:41.189Z,0.00
2019-03-23T00:06:41.180Z,0.00
2019-03-23T00:07:41.174Z,0.00
2019-03-23T00:08:41.163Z,0.00
2019-03-23T00:09:41.234Z,0.00
2019-03-23T00:10:41.136Z,0.00
2019-03-23T00:11:41.140Z,0.00
2019-03-23T00:12:41.113Z,0.00
2019-03-23T00:13:41.115Z,0.00
2019-03-23T00:14:41.092Z,0.00
2019-03-23T00:15:41.140Z,0.00
2019-03-23T00:16:41.070Z,0.00
2019-03-23T00:17:41.060Z,0.00
2019-03-23T00:18:41.093Z,0.00
2019-03-23T00:19:41.048Z,0.00
2019-03-23T00:20:41.078Z,0.00
2019-03-23T00:21:41.060Z,0.00
2019-03-23T00:22:41.013Z,0.00
2019-03-23T00:23:41.039Z,0.00
2019-03-23T00:24:41.046Z,0.00
2019-03-23T00:25:40.994Z,0.00
2019-03-23T00:26:40.994Z,0.00
2019-03-23T00:27:40.966Z,0.00
2019-03-23T00:28:40.955Z,0.00
2019-03-23T00:29:40.942Z,0.00
2019-03-23T00:30:40.959Z,0.00
2019-03-23T00:31:40.950Z,0.00
2019-03-23T00:32:40.902Z,0.00
2019-03-23T00:33:40.897Z,0.00
2019-03-23T00:34:40.881Z,0.00
2019-03-23T00:35:40.908Z,0.00
2019-03-23T00:36:41.899Z,0.00
2019-03-23T00:37:40.860Z,0.00
2019-03-23T00:38:40.844Z,0.00
2019-03-23T00:39:40.901Z,0.00
2019-03-23T00:40:40.817Z,0.00
2019-03-23T00:41:40.855Z,0.00
2019-03-23T00:42:40.796Z,0.00
2019-03-23T00:43:40.792Z,0.00
2019-03-23T00:44:40.773Z,0.00
2019-03-23T00:45:40.794Z,0.00
2019-03-23T00:46:40.761Z,0.00
2019-03-23T00:47:40.769Z,0.00
2019-03-23T00:48:40.734Z,0.00
2019-03-23T00:49:40.737Z,0.00
2019-03-23T00:50:40.711Z,0.00
2019-03-23T00:51:40.722Z,0.00
2019-03-23T00:52:40.772Z,0.00
2019-03-23T00:53:40.688Z,0.00
2019-03-23T00:54:40.680Z,0.00
2019-03-23T00:55:40.656Z,0.00
2019-03-23T00:56:40.652Z,0.00
2019-03-23T00:57:40.678Z,0.00
2019-03-23T00:58:40.654Z,0.00
2019-03-23T00:59:40.607Z,0.00
2019-03-23T01:00:40.599Z,0.00
2019-03-23T01:01:40.606Z,0.00
2019-03-23T01:02:41.842Z,0.00
2019-03-23T01:03:40.618Z,0.00
2019-03-23T01:04:40.557Z,0.00
2019-03-23T01:05:40.556Z,0.00
2019-03-23T01:06:40.581Z,0.00
2019-03-23T01:07:40.541Z,0.00
2019-03-23T01:08:40.541Z,0.00
2019-03-23T01:09:40.537Z,0.00
2019-03-23T01:10:40.491Z,0.00
2019-03-23T01:11:40.491Z,0.00
2019-03-23T01:12:40.474Z,0.00
2019-03-23T01:13:40.464Z,0.00
2019-03-23T01:14:40.497Z,0.00
2019-03-23T01:15:40.443Z,0.00
2019-03-23T01:16:40.432Z,0.00
2019-03-23T01:17:40.420Z,0.00
2019-03-23T01:18:40.409Z,0.00
2019-03-23T01:19:40.435Z,0.00
2019-03-23T01:20:49.286Z,0.00
2019-03-23T01:21:41.369Z,0.00
2019-03-23T01:22:40.361Z,0.00
2019-03-23T01:23:40.363Z,0.00
2019-03-23T01:24:40.390Z,0.00
2019-03-23T01:25:40.819Z,0.00
2019-03-23T01:26:40.319Z,0.00
2019-03-23T01:27:40.323Z,0.00
2019-03-23T01:28:40.307Z,0.00
2019-03-23T01:29:40.297Z,0.00
2019-03-23T01:30:40.275Z,0.00
2019-03-23T01:31:40.325Z,0.00
2019-03-23T01:32:40.781Z,0.00
2019-03-23T01:33:40.241Z,0.00
2019-03-23T01:34:40.233Z,0.00
2019-03-23T01:35:40.245Z,0.00
2019-03-23T01:36:40.243Z,0.00
2019-03-23T01:37:40.203Z,0.00
2019-03-23T01:38:40.259Z,0.00
2019-03-23T01:39:40.175Z,0.00
2019-03-23T01:40:40.210Z,0.00
2019-03-23T01:41:40.167Z,0.00
2019-03-23T01:42:40.161Z,0.00
2019-03-23T01:43:40.129Z,0.00
2019-03-23T01:44:40.138Z,0.00
2019-03-23T01:45:40.195Z,0.00
2019-03-23T01:46:40.096Z,0.00
2019-03-23T01:47:40.136Z,0.00
2019-03-23T01:48:40.075Z,0.00
2019-03-23T01:49:40.065Z,0.00
2019-03-23T01:50:40.053Z,0.00
2019-03-23T01:51:40.041Z,0.00
2019-03-23T01:52:40.038Z,0.00
2019-03-23T01:53:40.177Z,0.00
2019-03-23T01:54:40.007Z,0.00
2019-03-23T01:55:40.000Z,0.00
2019-03-23T01:56:39.994Z,0.00
2019-03-23T01:57:39.973Z,0.00
2019-03-23T01:58:40.032Z,0.00
2019-03-23T01:59:39.971Z,0.00
2019-03-23T02:00:40.002Z,0.00
2019-03-23T02:01:39.931Z,0.00
2019-03-23T02:02:39.950Z,0.00
2019-03-23T02:03:39.935Z,0.00
2019-03-23T02:04:39.921Z,0.00
2019-03-23T02:05:39.888Z,0.00
2019-03-23T02:06:39.884Z,0.00
2019-03-23T02:07:39.867Z,0.00
2019-03-23T02:08:39.855Z,0.00
2019-03-23T02:09:39.862Z,0.00
2019-03-23T02:10:41.862Z,0.00
2019-03-23T02:11:39.822Z,0.00
2019-03-23T02:12:39.810Z,0.00
2019-03-23T02:13:39.836Z,0.00
2019-03-23T02:14:39.855Z,0.00
2019-03-23T02:15:39.783Z,0.00
2019-03-23T02:16:39.776Z,0.00
2019-03-23T02:17:39.753Z,0.00
2019-03-23T02:18:39.775Z,0.00
2019-03-23T02:19:39.746Z,0.00
2019-03-23T02:20:39.750Z,0.00
2019-03-23T02:21:39.714Z,0.00
2019-03-23T02:22:39.697Z,0.00
2019-03-23T02:23:39.694Z,0.00
2019-03-23T02:24:39.690Z,0.00
2019-03-23T02:25:39.785Z,0.00
2019-03-23T02:26:39.719Z,0.00
2019-03-23T02:27:39.653Z,0.00
2019-03-23T02:28:39.646Z,0.00
2019-03-23T02:29:39.621Z,0.00
2019-03-23T02:30:39.644Z,0.00
2019-03-23T02:31:39.627Z,0.00
2019-03-23T02:32:39.653Z,0.00
2019-03-23T02:33:39.582Z,0.00
2019-03-23T02:34:39.571Z,0.00
2019-03-23T02:35:39.568Z,0.00
2019-03-23T02:36:39.586Z,0.00
2019-03-23T02:37:39.543Z,0.00
2019-03-23T02:38:39.583Z,0.00
2019-03-23T02:39:39.526Z,0.00
2019-03-23T02:40:39.532Z,0.00
2019-03-23T02:41:39.518Z,0.00
2019-03-23T02:42:39.516Z,0.00
2019-03-23T02:43:39.471Z,0.00
2019-03-23T02:44:39.478Z,0.00
2019-03-23T02:45:39.472Z,0.00
2019-03-23T02:46:39.442Z,0.00
2019-03-23T02:47:39.474Z,0.00
2019-03-23T02:48:39.417Z,0.00
2019-03-23T02:49:39.409Z,0.00
2019-03-23T02:50:39.409Z,0.00
2019-03-23T02:51:39.845Z,0.00
2019-03-23T02:52:39.420Z,0.00
2019-03-23T02:53:39.378Z,0.00
2019-03-23T02:54:39.359Z,0.00
2019-03-23T02:55:39.410Z,0.00
2019-03-23T02:56:39.336Z,0.00
2019-03-23T02:57:39.364Z,0.00
2019-03-23T02:58:39.349Z,0.00
2019-03-23T02:59:39.296Z,0.00
2019-03-23T03:00:39.287Z,0.00
2019-03-23T03:01:39.294Z,0.00
2019-03-23T03:02:39.274Z,0.00
2019-03-23T03:03:39.276Z,0.00
2019-03-23T03:04:39.260Z,0.00
2019-03-23T03:05:39.234Z,0.00
2019-03-23T03:06:39.240Z,0.00
2019-03-23T03:07:42.294Z,0.00
2019-03-23T03:08:39.205Z,0.00
2019-03-23T03:09:39.236Z,0.00
2019-03-23T03:10:39.176Z,0.00
2019-03-23T03:11:39.176Z,0.00
2019-03-23T03:12:39.209Z,0.00
2019-03-23T03:13:39.144Z,0.00
2019-03-23T03:14:39.129Z,0.00
2019-03-23T03:15:39.145Z,0.00
2019-03-23T03:16:39.115Z,0.00
2019-03-23T03:17:39.108Z,0.00
2019-03-23T03:18:39.104Z,0.00
2019-03-23T03:19:39.083Z,0.00
2019-03-23T03:20:39.132Z,0.00
2019-03-23T03:21:39.058Z,0.00
2019-03-23T03:22:39.044Z,0.00
2019-03-23T03:23:39.082Z,0.00
2019-03-23T03:24:39.023Z,0.00
2019-03-23T03:25:39.018Z,0.00
2019-03-23T03:26:39.022Z,0.00
2019-03-23T03:27:38.987Z,0.00
2019-03-23T03:28:38.978Z,0.00
2019-03-23T03:29:38.973Z,0.00
2019-03-23T03:30:38.993Z,0.00
2019-03-23T03:31:39.002Z,0.00
2019-03-23T03:32:38.931Z,0.00
2019-03-23T03:33:38.925Z,0.00
2019-03-23T03:34:38.919Z,0.00
2019-03-23T03:35:38.911Z,0.00
2019-03-23T03:36:38.926Z,0.00
2019-03-23T03:37:38.903Z,0.00
2019-03-23T03:38:38.871Z,0.00
2019-03-23T03:39:38.854Z,0.00
2019-03-23T03:40:38.850Z,0.00
2019-03-23T03:41:38.842Z,0.00
2019-03-23T03:42:38.881Z,0.00
2019-03-23T03:43:38.813Z,0.00
2019-03-23T03:44:38.814Z,0.00
2019-03-23T03:45:38.800Z,0.00
2019-03-23T03:46:38.793Z,0.00
2019-03-23T03:47:41.188Z,0.00
2019-03-23T03:48:38.756Z,0.00
2019-03-23T03:49:38.746Z,0.00
2019-03-23T03:50:38.740Z,0.00
2019-03-23T03:51:38.742Z,0.00
2019-03-23T03:52:38.743Z,0.00
2019-03-23T03:53:38.731Z,0.00
2019-03-23T03:54:38.723Z,0.00
2019-03-23T03:55:38.683Z,0.00
2019-03-23T03:56:38.673Z,0.00
2019-03-23T03:57:38.686Z,0.00
2019-03-23T03:58:38.692Z,0.00
2019-03-23T03:59:38.639Z,0.00
2019-03-23T04:00:38.643Z,0.00
2019-03-23T04:01:38.618Z,0.00
2019-03-23T04:02:38.606Z,0.00
2019-03-23T04:03:38.599Z,0.00
2019-03-23T04:04:38.603Z,0.00
2019-03-23T04:05:38.617Z,0.00
2019-03-23T04:06:39.189Z,0.00
2019-03-23T04:07:38.573Z,0.00
2019-03-23T04:08:38.545Z,0.00
2019-03-23T04:09:40.418Z,0.00
2019-03-23T04:10:38.532Z,0.00
2019-03-23T04:11:38.516Z,0.00
2019-03-23T04:12:38.497Z,0.00
2019-03-23T04:13:38.489Z,0.00
2019-03-23T04:14:38.516Z,0.00
2019-03-23T04:15:38.491Z,0.00
2019-03-23T04:16:38.457Z,0.00
2019-03-23T04:17:38.454Z,0.00
2019-03-23T04:18:38.434Z,0.00
2019-03-23T04:19:38.426Z,0.00
2019-03-23T04:20:38.453Z,0.00
2019-03-23T04:21:38.416Z,0.00
2019-03-23T04:22:38.398Z,0.00
2019-03-23T04:23:38.393Z,0.00
2019-03-23T04:24:38.378Z,0.00
2019-03-23T04:25:38.379Z,0.00
2019-03-23T04:26:39.427Z,0.00
2019-03-23T04:27:38.340Z,0.00
2019-03-23T04:28:38.344Z,0.00
2019-03-23T04:29:38.315Z,0.00
2019-03-23T04:30:38.309Z,0.00
2019-03-23T04:31:38.373Z,0.00
2019-03-23T04:32:38.293Z,0.00
2019-03-23T04:33:38.274Z,0.00
2019-03-23T04:34:38.304Z,0.00
2019-03-23T04:35:38.281Z,0.00
2019-03-23T04:36:38.277Z,0.00
2019-03-23T04:37:38.254Z,0.00
2019-03-23T04:38:38.225Z,0.00
2019-03-23T04:39:38.212Z,0.00
2019-03-23T04:40:38.198Z,0.00
2019-03-23T04:41:38.202Z,0.00
2019-03-23T04:42:38.219Z,0.00
2019-03-23T04:43:38.163Z,0.00
2019-03-23T04:44:38.148Z,4.00
2019-03-23T04:45:38.141Z,0.00
2019-03-23T04:46:38.146Z,0.00
2019-03-23T04:47:38.130Z,4.00
2019-03-23T04:48:38.131Z,4.00
2019-03-23T04:49:38.101Z,4.00
2019-03-23T04:50:38.085Z,4.00
2019-03-23T04:51:38.070Z,4.00
2019-03-23T04:52:38.067Z,4.00
2019-03-23T04:53:38.091Z,4.00
2019-03-23T04:54:39.006Z,8.00
2019-03-23T04:55:38.092Z,8.00
2019-03-23T04:56:38.024Z,8.00
2019-03-23T04:57:38.011Z,12.00
2019-03-23T04:58:38.023Z,12.00
2019-03-23T04:59:38.011Z,12.00
2019-03-23T05:00:37.977Z,12.00
2019-03-23T05:01:37.978Z,12.00
2019-03-23T05:02:37.963Z,20.00
2019-03-23T05:03:37.946Z,20.00
2019-03-23T05:04:37.985Z,20.00
2019-03-23T05:05:37.926Z,24.00
2019-03-23T05:06:37.915Z,24.00
2019-03-23T05:07:37.897Z,24.00
2019-03-23T05:08:37.898Z,28.00
2019-03-23T05:09:37.897Z,28.00
2019-03-23T05:10:37.864Z,36.00
2019-03-23T05:11:37.866Z,40.00
2019-03-23T05:12:37.844Z,40.00
2019-03-23T05:13:37.836Z,44.00
2019-03-23T05:14:37.862Z,44.00
2019-03-23T05:15:37.809Z,52.00
2019-03-23T05:16:37.805Z,52.00
2019-03-23T05:17:37.794Z,56.00
2019-03-23T05:18:37.797Z,60.00
2019-03-23T05:19:37.772Z,64.00
2019-03-23T05:20:37.784Z,68.00
2019-03-23T05:21:37.744Z,72.00
2019-03-23T05:22:37.736Z,76.00
2019-03-23T05:23:37.733Z,84.00
2019-03-23T05:24:37.719Z,88.00
2019-03-23T05:25:37.747Z,88.00
2019-03-23T05:26:37.697Z,96.00
2019-03-23T05:27:37.683Z,96.00
2019-03-23T05:28:37.678Z,100.00
2019-03-23T05:29:37.672Z,104.00
2019-03-23T05:30:37.649Z,108.00
2019-03-23T05:31:37.677Z,112.00
2019-03-23T05:32:37.633Z,116.00
2019-03-23T05:33:37.631Z,120.00
2019-03-23T05:34:37.610Z,124.00
2019-03-23T05:35:37.662Z,132.00
2019-03-23T05:36:37.641Z,132.00
2019-03-23T05:37:37.569Z,136.00
2019-03-23T05:38:44.333Z,140.00
2019-03-23T05:39:38.546Z,148.00
2019-03-23T05:40:37.534Z,152.00
2019-03-23T05:41:37.556Z,156.00
2019-03-23T05:42:37.522Z,164.00
2019-03-23T05:43:37.502Z,164.00
2019-03-23T05:44:37.490Z,168.00
2019-03-23T05:45:37.473Z,172.00
2019-03-23T05:46:37.482Z,176.00
2019-03-23T05:47:37.479Z,180.00
2019-03-23T05:48:37.443Z,184.00
2019-03-23T05:49:37.430Z,188.00
2019-03-23T05:50:37.425Z,192.00
2019-03-23T05:51:37.412Z,200.00
2019-03-23T05:52:37.435Z,200.00
2019-03-23T05:53:37.397Z,204.00
2019-03-23T05:54:37.398Z,208.00
2019-03-23T05:55:37.373Z,216.00
2019-03-23T05:56:37.365Z,220.00
2019-03-23T05:57:37.370Z,228.00
2019-03-23T05:58:37.354Z,228.00
2019-03-23T05:59:37.332Z,236.00
2019-03-23T06:00:37.319Z,240.00
2019-03-23T06:01:37.319Z,248.00
2019-03-23T06:02:37.294Z,252.00
2019-03-23T06:03:37.308Z,256.00
2019-03-23T06:04:37.278Z,264.00
2019-03-23T06:05:37.257Z,268.00
2019-03-23T06:06:37.249Z,272.00
2019-03-23T06:07:37.249Z,280.00
2019-03-23T06:08:37.245Z,288.00
2019-03-23T06:09:37.250Z,296.00
2019-03-23T06:10:37.204Z,304.00
2019-03-23T06:11:37.196Z,312.00
2019-03-23T06:12:37.192Z,320.00
2019-03-23T06:13:37.194Z,328.00
2019-03-23T06:14:37.195Z,336.00
2019-03-23T06:15:37.167Z,344.00
2019-03-23T06:16:37.146Z,356.00
2019-03-23T06:17:37.131Z,368.00
2019-03-23T06:18:37.120Z,376.00
2019-03-23T06:19:37.116Z,384.00
2019-03-23T06:20:37.119Z,392.00
2019-03-23T06:21:37.085Z,400.00
2019-03-23T06:22:37.076Z,412.00
2019-03-23T06:23:37.064Z,416.00
2019-03-23T06:24:37.051Z,428.00
2019-03-23T06:25:37.072Z,440.00
2019-03-23T06:26:37.047Z,448.00
2019-03-23T06:27:37.025Z,456.00
2019-03-23T06:28:37.014Z,464.00
2019-03-23T06:29:36.998Z,472.00
2019-03-23T06:30:36.994Z,484.00
2019-03-23T06:31:36.994Z,496.00
2019-03-23T06:32:36.968Z,504.00
2019-03-23T06:33:36.991Z,512.00
2019-03-23T06:34:36.946Z,524.00
2019-03-23T06:35:36.931Z,528.00
2019-03-23T06:36:36.950Z,540.00
2019-03-23T06:37:36.913Z,548.00
2019-03-23T06:38:36.899Z,556.00
2019-03-23T06:39:36.899Z,564.00
2019-03-23T06:40:36.893Z,572.00
2019-03-23T06:41:36.870Z,580.00
2019-03-23T06:42:36.886Z,584.00
2019-03-23T06:43:36.850Z,592.00
2019-03-23T06:44:36.835Z,600.00
2019-03-23T06:45:36.821Z,608.00
2019-03-23T06:46:36.814Z,616.00
2019-03-23T06:47:36.857Z,624.00
2019-03-23T06:48:36.787Z,632.00
2019-03-23T06:49:36.789Z,640.00
2019-03-23T06:50:36.771Z,648.00
2019-03-23T06:51:36.760Z,656.00
2019-03-23T06:52:36.778Z,660.00
2019-03-23T06:53:36.761Z,668.00
2019-03-23T06:54:36.728Z,672.00
2019-03-23T06:55:36.717Z,676.00
2019-03-23T06:56:36.712Z,680.00
2019-03-23T06:57:36.737Z,688.00
2019-03-23T06:58:38.601Z,692.00
2019-03-23T06:59:36.669Z,696.00
2019-03-23T07:00:36.671Z,704.00
2019-03-23T07:01:36.648Z,708.00
2019-03-23T07:02:36.643Z,716.00
2019-03-23T07:03:36.645Z,728.00
2019-03-23T07:04:36.612Z,728.00
2019-03-23T07:05:36.634Z,740.00
2019-03-23T07:06:36.598Z,744.00
2019-03-23T07:07:36.581Z,748.00
2019-03-23T07:08:36.601Z,756.00
2019-03-23T07:09:36.585Z,760.00
2019-03-23T07:10:36.550Z,764.00
2019-03-23T07:11:36.537Z,772.00
2019-03-23T07:12:36.543Z,776.00
2019-03-23T07:13:36.516Z,784.00
2019-03-23T07:14:36.532Z,788.00
2019-03-23T07:15:36.509Z,796.00
2019-03-23T07:16:36.508Z,804.00
2019-03-23T07:17:36.506Z,808.00
2019-03-23T07:18:36.476Z,812.00
2019-03-23T07:19:36.457Z,820.00
2019-03-23T07:20:36.461Z,828.00
2019-03-23T07:21:36.429Z,836.00
2019-03-23T07:22:36.437Z,844.00
2019-03-23T07:23:36.430Z,860.00
2019-03-23T07:24:36.412Z,888.00
2019-03-23T07:25:36.387Z,912.00
2019-03-23T07:26:36.374Z,920.00
2019-03-23T07:27:36.605Z,924.00
2019-03-23T07:28:36.356Z,928.00
2019-03-23T07:29:36.352Z,940.00
2019-03-23T07:30:36.328Z,952.00
2019-03-23T07:31:36.319Z,964.00
2019-03-23T07:32:36.312Z,972.00
2019-03-23T07:33:36.315Z,976.00
2019-03-23T07:34:36.284Z,988.00
2019-03-23T07:35:36.284Z,992.00
2019-03-23T07:36:36.263Z,960.00
2019-03-23T07:37:36.260Z,944.00
2019-03-23T07:38:36.277Z,940.00
2019-03-23T07:39:36.250Z,932.00
2019-03-23T07:40:36.220Z,924.00
2019-03-23T07:41:36.214Z,920.00
2019-03-23T07:42:36.197Z,908.00
2019-03-23T07:43:36.201Z,904.00
2019-03-23T07:44:36.208Z,900.00
2019-03-23T07:45:36.171Z,896.00
2019-03-23T07:46:36.159Z,896.00
2019-03-23T07:47:36.146Z,896.00
2019-03-23T07:48:36.131Z,896.00
2019-03-23T07:49:36.220Z,900.00
2019-03-23T07:50:36.130Z,884.00
2019-03-23T07:51:36.106Z,884.00
2019-03-23T07:52:36.093Z,884.00
2019-03-23T07:53:36.078Z,892.00
2019-03-23T07:54:36.069Z,892.00
2019-03-23T07:55:36.104Z,892.00
2019-03-23T07:56:36.049Z,892.00
2019-03-23T07:57:36.033Z,888.00
2019-03-23T07:58:36.028Z,888.00
2019-03-23T07:59:36.010Z,892.00
2019-03-23T08:00:36.047Z,892.00
2019-03-23T08:01:35.993Z,892.00
2019-03-23T08:02:35.981Z,900.00
2019-03-23T08:03:35.971Z,904.00
2019-03-23T08:04:35.960Z,900.00
2019-03-23T08:05:35.948Z,900.00
2019-03-23T08:06:35.978Z,896.00
2019-03-23T08:07:35.924Z,900.00
2019-03-23T08:08:35.934Z,904.00
2019-03-23T08:09:37.947Z,904.00
2019-03-23T08:10:35.892Z,904.00
2019-03-23T08:11:35.883Z,908.00
2019-03-23T08:12:35.881Z,912.00
2019-03-23T08:13:35.892Z,908.00
2019-03-23T08:14:36.248Z,908.00
2019-03-23T08:15:35.893Z,908.00
2019-03-23T08:16:35.836Z,916.00
2019-03-23T08:17:35.824Z,916.00
2019-03-23T08:18:35.809Z,920.00
2019-03-23T08:19:35.812Z,924.00
2019-03-23T08:20:35.791Z,924.00
2019-03-23T08:21:35.814Z,928.00
2019-03-23T08:22:35.767Z,932.00
2019-03-23T08:23:35.761Z,936.00
2019-03-23T08:24:35.779Z,940.00
2019-03-23T08:25:35.740Z,944.00
2019-03-23T08:26:35.725Z,944.00
2019-03-23T08:27:35.715Z,948.00
2019-03-23T08:28:35.697Z,948.00
2019-03-23T08:29:35.689Z,948.00
2019-03-23T08:30:35.692Z,952.00
2019-03-23T08:31:35.675Z,948.00
2019-03-23T08:32:35.658Z,956.00
2019-03-23T08:33:35.646Z,956.00
2019-03-23T08:34:35.653Z,960.00
2019-03-23T08:35:35.658Z,960.00
2019-03-23T08:36:35.622Z,964.00
2019-03-23T08:37:35.603Z,964.00
2019-03-23T08:38:35.586Z,960.00
2019-03-23T08:39:35.609Z,964.00
2019-03-23T08:40:35.912Z,964.00
2019-03-23T08:41:35.575Z,964.00
2019-03-23T08:42:35.554Z,956.00
2019-03-23T08:43:35.558Z,960.00
2019-03-23T08:44:35.542Z,956.00
2019-03-23T08:45:35.511Z,952.00
2019-03-23T08:46:35.524Z,952.00
2019-03-23T08:47:35.503Z,944.00
2019-03-23T08:48:35.481Z,952.00
2019-03-23T08:49:35.493Z,952.00
2019-03-23T08:50:35.458Z,952.00
2019-03-23T08:51:35.449Z,952.00
2019-03-23T08:52:35.443Z,952.00
2019-03-23T08:53:35.422Z,956.00
2019-03-23T08:54:35.452Z,960.00
2019-03-23T08:55:35.413Z,956.00
2019-03-23T08:56:37.365Z,960.00
2019-03-23T08:57:35.381Z,960.00
2019-03-23T08:58:35.373Z,956.00
2019-03-23T08:59:35.391Z,960.00
2019-03-23T09:00:35.386Z,956.00
2019-03-23T09:01:35.338Z,960.00
2019-03-23T09:02:35.344Z,960.00
2019-03-23T09:03:35.353Z,952.00
2019-03-23T09:04:35.345Z,948.00
2019-03-23T09:05:35.314Z,952.00
2019-03-23T09:06:35.284Z,948.00
2019-03-23T09:07:35.290Z,952.00
2019-03-23T09:08:35.304Z,952.00
2019-03-23T09:09:35.559Z,956.00
2019-03-23T09:10:35.241Z,952.00
2019-03-23T09:11:35.232Z,948.00
2019-03-23T09:12:35.231Z,956.00
2019-03-23T09:13:40.541Z,956.00
2019-03-23T09:14:36.238Z,948.00
2019-03-23T09:15:35.219Z,944.00
2019-03-23T09:16:35.234Z,948.00
2019-03-23T09:17:35.193Z,952.00
2019-03-23T09:18:35.150Z,952.00
2019-03-23T09:19:35.169Z,956.00
2019-03-23T09:20:35.181Z,964.00
2019-03-23T09:21:35.145Z,964.00
2019-03-23T09:22:35.104Z,972.00
2019-03-23T09:23:35.126Z,976.00
2019-03-23T09:24:35.110Z,976.00
2019-03-23T09:25:35.103Z,976.00
2019-03-23T09:26:35.112Z,972.00
2019-03-23T09:27:35.071Z,964.00
2019-03-23T09:28:35.042Z,960.00
2019-03-23T09:29:35.032Z,968.00
2019-03-23T09:30:35.037Z,976.00
2019-03-23T09:31:35.019Z,980.00
2019-03-23T09:32:35.012Z,980.00
2019-03-23T09:33:35.018Z,980.00
2019-03-23T09:34:34.983Z,980.00
2019-03-23T09:35:34.990Z,988.00
2019-03-23T09:36:34.967Z,984.00
2019-03-23T09:37:38.106Z,992.00
2019-03-23T09:38:34.953Z,988.00
2019-03-23T09:39:34.922Z,992.00
2019-03-23T09:40:34.916Z,1000.00
2019-03-23T09:41:34.951Z,992.00
2019-03-23T09:42:34.897Z,992.00
2019-03-23T09:43:34.879Z,992.00
2019-03-23T09:44:34.885Z,996.00
2019-03-23T09:45:34.889Z,992.00
2019-03-23T09:46:34.893Z,1000.00
2019-03-23T09:47:34.831Z,1000.00
2019-03-23T09:48:34.829Z,1008.00
2019-03-23T09:49:34.870Z,1012.00
2019-03-23T09:50:34.852Z,1008.00
2019-03-23T09:51:34.784Z,1008.00
2019-03-23T09:52:34.772Z,1004.00
2019-03-23T09:53:34.804Z,1008.00
2019-03-23T09:54:34.772Z,1004.00
2019-03-23T09:55:34.775Z,1004.00
2019-03-23T09:56:34.753Z,1012.00
2019-03-23T09:57:34.719Z,1008.00
2019-03-23T09:58:34.706Z,1020.00
2019-03-23T09:59:34.719Z,1024.00
2019-03-23T10:00:34.708Z,1020.00
2019-03-23T10:01:34.711Z,1040.00
2019-03-23T10:02:34.674Z,1036.00
2019-03-23T10:03:34.674Z,1044.00
2019-03-23T10:04:34.689Z,1028.00
2019-03-23T10:05:34.676Z,1040.00
2019-03-23T10:06:34.661Z,1032.00
2019-03-23T10:07:34.633Z,1028.00
2019-03-23T10:08:34.625Z,1020.00
2019-03-23T10:09:34.599Z,1012.00
2019-03-23T10:10:34.587Z,1004.00
2019-03-23T10:11:34.610Z,1016.00
2019-03-23T10:12:34.583Z,1012.00
2019-03-23T10:13:34.546Z,1016.00
2019-03-23T10:14:34.538Z,1028.00
2019-03-23T10:15:34.531Z,1024.00
2019-03-23T10:16:34.547Z,1024.00
2019-03-23T10:17:34.525Z,1020.00
2019-03-23T10:18:34.507Z,1036.00
2019-03-23T10:19:34.488Z,1032.00
2019-03-23T10:20:34.467Z,1024.00
2019-03-23T10:21:34.508Z,1028.00
2019-03-23T10:22:34.451Z,1020.00
2019-03-23T10:23:34.438Z,1028.00
2019-03-23T10:24:34.422Z,1024.00
2019-03-23T10:25:34.423Z,1052.00
2019-03-23T10:26:34.423Z,1040.00
2019-03-23T10:27:34.410Z,1040.00
2019-03-23T10:28:34.386Z,1052.00
2019-03-23T10:29:34.377Z,1060.00
2019-03-23T10:30:34.357Z,1056.00
2019-03-23T10:31:34.361Z,1040.00
2019-03-23T10:32:34.367Z,1024.00
2019-03-23T10:33:34.323Z,1036.00
2019-03-23T10:34:34.337Z,1040.00
2019-03-23T10:35:34.315Z,1028.00
2019-03-23T10:36:34.300Z,1024.00
2019-03-23T10:37:34.304Z,1032.00
2019-03-23T10:38:34.294Z,1012.00
2019-03-23T10:39:34.262Z,1020.00
2019-03-23T10:40:34.280Z,1040.00
2019-03-23T10:41:34.247Z,1032.00
2019-03-23T10:42:34.226Z,1020.00
2019-03-23T10:43:34.219Z,1032.00
2019-03-23T10:44:34.203Z,1044.00
2019-03-23T10:45:43.781Z,1040.00
2019-03-23T10:46:35.180Z,1008.00
2019-03-23T10:47:34.203Z,1004.00
2019-03-23T10:48:34.174Z,1016.00
2019-03-23T10:49:34.157Z,1056.00
2019-03-23T10:50:34.160Z,1064.00
2019-03-23T10:51:34.125Z,1040.00
2019-03-23T10:52:34.155Z,1080.00
2019-03-23T10:53:34.125Z,1068.00
2019-03-23T10:54:34.103Z,1084.00
2019-03-23T10:55:34.135Z,1084.00
2019-03-23T10:56:34.075Z,1100.00
2019-03-23T10:57:34.083Z,1080.00
2019-03-23T10:58:34.047Z,1076.00
2019-03-23T10:59:34.044Z,972.00
2019-03-23T11:00:34.030Z,928.00
2019-03-23T11:01:34.082Z,928.00
2019-03-23T11:02:34.014Z,956.00
2019-03-23T11:03:33.993Z,972.00
2019-03-23T11:04:33.993Z,996.00
2019-03-23T11:05:33.980Z,1024.00
2019-03-23T11:06:33.995Z,1064.00
2019-03-23T11:07:33.988Z,1076.00
2019-03-23T11:08:33.946Z,1088.00
2019-03-23T11:09:33.935Z,1068.00
2019-03-23T11:10:41.585Z,1052.00
2019-03-23T11:11:34.930Z,1052.00
2019-03-23T11:12:33.895Z,1064.00
2019-03-23T11:13:33.927Z,1052.00
2019-03-23T11:14:33.919Z,1020.00
2019-03-23T11:15:33.914Z,1028.00
2019-03-23T11:16:33.895Z,968.00
2019-03-23T11:17:33.846Z,944.00
2019-03-23T11:18:33.854Z,936.00
2019-03-23T11:19:33.829Z,936.00
2019-03-23T11:20:33.810Z,980.00
2019-03-23T11:21:33.808Z,912.00
2019-03-23T11:22:33.872Z,900.00
2019-03-23T11:23:33.815Z,920.00
2019-03-23T11:24:33.770Z,944.00
2019-03-23T11:25:33.751Z,920.00
2019-03-23T11:26:33.740Z,860.00
2019-03-23T11:27:33.771Z,820.00
2019-03-23T11:28:33.755Z,816.00
2019-03-23T11:29:33.708Z,860.00
2019-03-23T11:30:33.701Z,828.00
2019-03-23T11:31:33.704Z,840.00
2019-03-23T11:32:33.687Z,848.00
2019-03-23T11:33:33.704Z,800.00
2019-03-23T11:34:33.671Z,848.00
2019-03-23T11:35:33.644Z,856.00
2019-03-23T11:36:33.636Z,892.00
2019-03-23T11:37:33.668Z,940.00
2019-03-23T11:38:33.678Z,856.00
2019-03-23T11:39:33.600Z,888.00
2019-03-23T11:40:33.611Z,888.00
2019-03-23T11:41:33.578Z,860.00
2019-03-23T11:42:33.589Z,820.00
2019-03-23T11:43:33.595Z,848.00
2019-03-23T11:44:33.563Z,824.00
2019-03-23T11:45:33.539Z,828.00
2019-03-23T11:46:33.555Z,788.00
2019-03-23T11:47:33.514Z,816.00
2019-03-23T11:48:33.501Z,856.00
2019-03-23T11:49:33.520Z,864.00
2019-03-23T11:50:33.492Z,848.00
2019-03-23T11:51:33.578Z,848.00
2019-03-23T11:52:33.476Z,804.00
2019-03-23T11:53:33.482Z,800.00
2019-03-23T11:54:33.434Z,788.00
2019-03-23T11:55:33.437Z,804.00
2019-03-23T11:56:33.436Z,828.00
2019-03-23T11:57:33.401Z,812.00
2019-03-23T11:58:33.419Z,788.00
2019-03-23T11:59:33.405Z,788.00
2019-03-23T12:00:33.377Z,840.00
2019-03-23T12:01:33.403Z,812.00
2019-03-23T12:02:33.363Z,776.00
2019-03-23T12:03:33.337Z,820.00
2019-03-23T12:04:33.355Z,752.00
2019-03-23T12:05:33.320Z,776.00
2019-03-23T12:06:33.330Z,832.00
2019-03-23T12:07:33.294Z,836.00
2019-03-23T12:08:33.305Z,816.00
2019-03-23T12:09:33.316Z,884.00
2019-03-23T12:10:33.283Z,884.00
2019-03-23T12:11:33.267Z,844.00
2019-03-23T12:12:33.255Z,864.00
2019-03-23T12:13:33.231Z,684.00
2019-03-23T12:14:33.232Z,732.00
2019-03-23T12:15:33.279Z,740.00
2019-03-23T12:16:33.197Z,784.00
2019-03-23T12:17:33.237Z,764.00
2019-03-23T12:18:33.177Z,768.00
2019-03-23T12:19:33.168Z,748.00
2019-03-23T12:20:33.193Z,752.00
2019-03-23T12:21:33.148Z,780.00
2019-03-23T12:22:33.129Z,760.00
2019-03-23T12:23:33.124Z,780.00
2019-03-23T12:24:33.127Z,788.00
2019-03-23T12:25:33.109Z,784.00
2019-03-23T12:26:33.114Z,760.00
2019-03-23T12:27:33.079Z,756.00
2019-03-23T12:28:33.068Z,724.00
2019-03-23T12:29:33.166Z,768.00
2019-03-23T12:30:33.043Z,768.00
2019-03-23T12:31:33.062Z,712.00
2019-03-23T12:32:33.026Z,736.00
2019-03-23T12:33:33.025Z,752.00
2019-03-23T12:34:33.003Z,736.00
2019-03-23T12:35:33.006Z,720.00
2019-03-23T12:36:32.985Z,720.00
2019-03-23T12:37:33.012Z,700.00
2019-03-23T12:38:32.962Z,680.00
2019-03-23T12:39:32.944Z,672.00
2019-03-23T12:40:32.932Z,628.00
2019-03-23T12:41:32.940Z,632.00
2019-03-23T12:42:32.965Z,648.00
2019-03-23T12:43:32.902Z,644.00
2019-03-23T12:44:32.893Z,636.00
2019-03-23T12:45:32.904Z,636.00